sensor_id;sensor_type;location;lat;lon;timestamp;pressure;altitude;pressure_sealevel;temperature;humidity
78892;BME280;68368;51.728;5.248;2024-01-15T00:14:17;100417.30;;;1.19;100.00
78892;BME280;68368;51.728;5.248;2024-01-15T00:19:41;100405.09;;;1.11;100.00
78892;BME280;68368;51.728;5.248;2024-01-15T00:27:04;100400.36;;;0.95;100.00
78892;BME280;68368;51.728;5.248;2024-01-15T00:29:11;100399.04;;;0.90;100.00
78892;BME280;68368;51.728;5.248;2024-01-15T00:31:23;100399.98;;;0.85;100.00
78892;BME280;68368;51.728;5.248;2024-01-15T00:33:30;100398.80;;;0.79;100.00
78892;BME280;68368;51.728;5.248;2024-01-15T00:35:33;100395.52;;;0.73;100.00
78892;BME280;68368;51.728;5.248;2024-01-15T00:37:38;100395.04;;;0.67;100.00
78892;BME280;68368;51.728;5.248;2024-01-15T00:39:43;100396.48;;;0.61;100.00
78892;BME280;68368;51.728;5.248;2024-01-15T00:41:47;100392.71;;;0.57;100.00
78892;BME280;68368;51.728;5.248;2024-01-15T00:43:50;100389.14;;;0.54;100.00
78892;BME280;68368;51.728;5.248;2024-01-15T00:45:54;100382.94;;;0.50;100.00
78892;BME280;68368;51.728;5.248;2024-01-15T00:47:58;100382.30;;;0.45;100.00
78892;BME280;68368;51.728;5.248;2024-01-15T00:50:01;100378.37;;;0.41;100.00
78892;BME280;68368;51.728;5.248;2024-01-15T00:52:14;100383.33;;;0.37;100.00
78892;BME280;68368;51.728;5.248;2024-01-15T00:54:18;100380.09;;;0.33;100.00
78892;BME280;68368;51.728;5.248;2024-01-15T00:56:22;100377.07;;;0.30;100.00
78892;BME280;68368;51.728;5.248;2024-01-15T00:58:25;100372.10;;;0.27;100.00
78892;BME280;68368;51.728;5.248;2024-01-15T01:00:29;100373.81;;;0.26;100.00
78892;BME280;68368;51.728;5.248;2024-01-15T01:02:33;100373.91;;;0.23;100.00
78892;BME280;68368;51.728;5.248;2024-01-15T01:04:40;100370.88;;;0.19;100.00
78892;BME280;68368;51.728;5.248;2024-01-15T01:06:48;100368.17;;;0.16;100.00
78892;BME280;68368;51.728;5.248;2024-01-15T01:08:51;100369.11;;;0.12;100.00
78892;BME280;68368;51.728;5.248;2024-01-15T01:10:57;100365.67;;;0.07;100.00
78892;BME280;68368;51.728;5.248;2024-01-15T01:13:03;100361.58;;;0.03;100.00
78892;BME280;68368;51.728;5.248;2024-01-15T01:15:09;100360.25;;;-0.01;100.00
78892;BME280;68368;51.728;5.248;2024-01-15T01:17:15;100355.82;;;-0.04;100.00
78892;BME280;68368;51.728;5.248;2024-01-15T01:19:20;100351.71;;;-0.08;100.00
78892;BME280;68368;51.728;5.248;2024-01-15T01:21:23;100353.08;;;-0.09;100.00
78892;BME280;68368;51.728;5.248;2024-01-15T01:23:29;100345.73;;;-0.09;100.00
78892;BME280;68368;51.728;5.248;2024-01-15T01:25:34;100344.52;;;-0.09;100.00
78892;BME280;68368;51.728;5.248;2024-01-15T01:27:37;100347.52;;;-0.09;100.00
78892;BME280;68368;51.728;5.248;2024-01-15T01:29:40;100347.70;;;-0.08;100.00
78892;BME280;68368;51.728;5.248;2024-01-15T01:31:52;100351.19;;;-0.08;100.00
78892;BME280;68368;51.728;5.248;2024-01-15T01:33:59;100357.65;;;-0.07;100.00
78892;BME280;68368;51.728;5.248;2024-01-15T01:36:08;100356.63;;;-0.06;100.00
78892;BME280;68368;51.728;5.248;2024-01-15T01:38:13;100363.84;;;-0.05;100.00
78892;BME280;68368;51.728;5.248;2024-01-15T01:40:17;100364.05;;;-0.02;100.00
78892;BME280;68368;51.728;5.248;2024-01-15T01:42:21;100364.60;;;-0.01;100.00
78892;BME280;68368;51.728;5.248;2024-01-15T01:44:24;100362.75;;;0.02;100.00
78892;BME280;68368;51.728;5.248;2024-01-15T01:46:28;100362.65;;;0.04;100.00
78892;BME280;68368;51.728;5.248;2024-01-15T01:48:32;100367.62;;;0.08;100.00
78892;BME280;68368;51.728;5.248;2024-01-15T01:50:35;100367.73;;;0.12;100.00
78892;BME280;68368;51.728;5.248;2024-01-15T01:52:38;100366.37;;;0.14;100.00
78892;BME280;68368;51.728;5.248;2024-01-15T01:54:43;100362.38;;;0.15;100.00
78892;BME280;68368;51.728;5.248;2024-01-15T01:56:48;100360.31;;;0.16;100.00
78892;BME280;68368;51.728;5.248;2024-01-15T01:58:52;100359.62;;;0.15;100.00
78892;BME280;68368;51.728;5.248;2024-01-15T02:00:58;100356.10;;;0.15;100.00
78892;BME280;68368;51.728;5.248;2024-01-15T02:03:01;100359.18;;;0.13;100.00
78892;BME280;68368;51.728;5.248;2024-01-15T02:05:08;100354.41;;;0.10;100.00
78892;BME280;68368;51.728;5.248;2024-01-15T02:07:12;100349.61;;;0.07;100.00
78892;BME280;68368;51.728;5.248;2024-01-15T02:09:16;100354.77;;;0.04;100.00
78892;BME280;68368;51.728;5.248;2024-01-15T02:11:19;100352.09;;;0.01;100.00
78892;BME280;68368;51.728;5.248;2024-01-15T02:13:22;100349.05;;;-0.03;100.00
78892;BME280;68368;51.728;5.248;2024-01-15T02:15:25;100345.17;;;-0.04;100.00
78892;BME280;68368;51.728;5.248;2024-01-15T02:17:28;100345.31;;;-0.05;100.00
78892;BME280;68368;51.728;5.248;2024-01-15T02:19:32;100347.38;;;-0.07;100.00
78892;BME280;68368;51.728;5.248;2024-01-15T02:21:35;100351.38;;;-0.07;100.00
78892;BME280;68368;51.728;5.248;2024-01-15T02:23:38;100349.27;;;-0.08;100.00
78892;BME280;68368;51.728;5.248;2024-01-15T02:25:43;100349.05;;;-0.09;100.00
78892;BME280;68368;51.728;5.248;2024-01-15T02:27:47;100343.09;;;-0.10;100.00
78892;BME280;68368;51.728;5.248;2024-01-15T02:29:51;100343.21;;;-0.12;100.00
78892;BME280;68368;51.728;5.248;2024-01-15T02:31:56;100342.67;;;-0.13;100.00
78892;BME280;68368;51.728;5.248;2024-01-15T02:34:02;100344.75;;;-0.14;100.00
78892;BME280;68368;51.728;5.248;2024-01-15T02:36:07;100347.50;;;-0.15;100.00
78892;BME280;68368;51.728;5.248;2024-01-15T02:38:11;100344.34;;;-0.17;100.00
78892;BME280;68368;51.728;5.248;2024-01-15T02:40:14;100346.02;;;-0.19;100.00
78892;BME280;68368;51.728;5.248;2024-01-15T02:42:17;100346.66;;;-0.21;100.00
78892;BME280;68368;51.728;5.248;2024-01-15T02:44:20;100348.88;;;-0.23;100.00
78892;BME280;68368;51.728;5.248;2024-01-15T02:46:24;100347.44;;;-0.25;100.00
78892;BME280;68368;51.728;5.248;2024-01-15T02:48:29;100342.55;;;-0.25;100.00
78892;BME280;68368;51.728;5.248;2024-01-15T02:50:32;100343.90;;;-0.27;100.00
78892;BME280;68368;51.728;5.248;2024-01-15T02:52:36;100344.76;;;-0.27;100.00
78892;BME280;68368;51.728;5.248;2024-01-15T02:54:39;100345.10;;;-0.28;100.00
78892;BME280;68368;51.728;5.248;2024-01-15T02:56:42;100344.36;;;-0.29;100.00
78892;BME280;68368;51.728;5.248;2024-01-15T02:58:46;100342.94;;;-0.31;100.00
78892;BME280;68368;51.728;5.248;2024-01-15T03:00:48;100342.71;;;-0.32;100.00
78892;BME280;68368;51.728;5.248;2024-01-15T03:02:52;100344.60;;;-0.34;100.00
78892;BME280;68368;51.728;5.248;2024-01-15T03:04:56;100342.83;;;-0.35;100.00
78892;BME280;68368;51.728;5.248;2024-01-15T03:07:01;100336.40;;;-0.34;100.00
78892;BME280;68368;51.728;5.248;2024-01-15T03:09:04;100334.54;;;-0.31;100.00
78892;BME280;68368;51.728;5.248;2024-01-15T03:11:07;100334.41;;;-0.30;100.00
78892;BME280;68368;51.728;5.248;2024-01-15T03:13:10;100339.46;;;-0.30;100.00
78892;BME280;68368;51.728;5.248;2024-01-15T03:15:14;100339.44;;;-0.31;100.00
78892;BME280;68368;51.728;5.248;2024-01-15T03:17:17;100334.36;;;-0.32;100.00
78892;BME280;68368;51.728;5.248;2024-01-15T03:19:20;100334.52;;;-0.32;100.00
78892;BME280;68368;51.728;5.248;2024-01-15T03:21:23;100339.93;;;-0.32;100.00
78892;BME280;68368;51.728;5.248;2024-01-15T03:23:25;100338.39;;;-0.31;100.00
78892;BME280;68368;51.728;5.248;2024-01-15T03:25:28;100337.00;;;-0.31;100.00
78892;BME280;68368;51.728;5.248;2024-01-15T03:27:31;100338.23;;;-0.30;100.00
78892;BME280;68368;51.728;5.248;2024-01-15T03:29:34;100334.73;;;-0.30;100.00
78892;BME280;68368;51.728;5.248;2024-01-15T03:31:37;100336.66;;;-0.30;100.00
78892;BME280;68368;51.728;5.248;2024-01-15T03:33:43;100336.64;;;-0.31;100.00
78892;BME280;68368;51.728;5.248;2024-01-15T03:35:45;100331.89;;;-0.32;100.00
78892;BME280;68368;51.728;5.248;2024-01-15T03:37:48;100328.91;;;-0.34;100.00
78892;BME280;68368;51.728;5.248;2024-01-15T03:39:51;100329.96;;;-0.33;100.00
78892;BME280;68368;51.728;5.248;2024-01-15T03:41:55;100332.25;;;-0.33;100.00
78892;BME280;68368;51.728;5.248;2024-01-15T03:43:57;100327.91;;;-0.32;100.00
78892;BME280;68368;51.728;5.248;2024-01-15T03:46:03;100329.51;;;-0.30;100.00
78892;BME280;68368;51.728;5.248;2024-01-15T03:48:07;100326.04;;;-0.30;100.00
78892;BME280;68368;51.728;5.248;2024-01-15T03:50:11;100322.59;;;-0.28;100.00
78892;BME280;68368;51.728;5.248;2024-01-15T03:52:14;100321.29;;;-0.24;100.00
78892;BME280;68368;51.728;5.248;2024-01-15T03:54:17;100320.36;;;-0.19;100.00
78892;BME280;68368;51.728;5.248;2024-01-15T03:56:21;100319.59;;;-0.16;100.00
78892;BME280;68368;51.728;5.248;2024-01-15T03:58:26;100321.80;;;-0.11;100.00
78892;BME280;68368;51.728;5.248;2024-01-15T04:00:29;100319.11;;;-0.07;100.00
78892;BME280;68368;51.728;5.248;2024-01-15T04:02:32;100319.23;;;-0.02;100.00
78892;BME280;68368;51.728;5.248;2024-01-15T04:04:36;100317.61;;;0.04;100.00
78892;BME280;68368;51.728;5.248;2024-01-15T04:06:38;100313.89;;;0.08;100.00
78892;BME280;68368;51.728;5.248;2024-01-15T04:08:41;100312.40;;;0.12;100.00
78892;BME280;68368;51.728;5.248;2024-01-15T04:10:44;100308.29;;;0.15;100.00
78892;BME280;68368;51.728;5.248;2024-01-15T04:12:47;100310.60;;;0.17;100.00
78892;BME280;68368;51.728;5.248;2024-01-15T04:14:50;100308.02;;;0.19;100.00
78892;BME280;68368;51.728;5.248;2024-01-15T04:16:53;100302.50;;;0.21;100.00
78892;BME280;68368;51.728;5.248;2024-01-15T04:18:56;100301.63;;;0.21;100.00
78892;BME280;68368;51.728;5.248;2024-01-15T04:20:59;100297.59;;;0.20;100.00
78892;BME280;68368;51.728;5.248;2024-01-15T04:23:02;100291.66;;;0.21;100.00
78892;BME280;68368;51.728;5.248;2024-01-15T04:25:08;100293.22;;;0.20;100.00
78892;BME280;68368;51.728;5.248;2024-01-15T04:27:11;100297.75;;;0.20;100.00
78892;BME280;68368;51.728;5.248;2024-01-15T04:29:18;100293.75;;;0.20;100.00
78892;BME280;68368;51.728;5.248;2024-01-15T04:34:02;100292.39;;;0.23;100.00
78892;BME280;68368;51.728;5.248;2024-01-15T04:36:17;100293.48;;;0.24;100.00
78892;BME280;68368;51.728;5.248;2024-01-15T04:38:47;100289.85;;;0.26;100.00
78892;BME280;68368;51.728;5.248;2024-01-15T04:41:18;100301.25;;;0.28;100.00
78892;BME280;68368;51.728;5.248;2024-01-15T04:43:21;100308.48;;;0.32;100.00
78892;BME280;68368;51.728;5.248;2024-01-15T04:45:26;100308.91;;;0.35;100.00
78892;BME280;68368;51.728;5.248;2024-01-15T04:47:29;100306.17;;;0.37;100.00
78892;BME280;68368;51.728;5.248;2024-01-15T04:49:34;100307.41;;;0.38;100.00
78892;BME280;68368;51.728;5.248;2024-01-15T04:51:38;100309.17;;;0.38;100.00
78892;BME280;68368;51.728;5.248;2024-01-15T04:53:43;100303.39;;;0.37;100.00
78892;BME280;68368;51.728;5.248;2024-01-15T04:55:48;100297.77;;;0.37;100.00
78892;BME280;68368;51.728;5.248;2024-01-15T04:57:51;100296.35;;;0.35;100.00
78892;BME280;68368;51.728;5.248;2024-01-15T04:59:54;100285.67;;;0.34;100.00
78892;BME280;68368;51.728;5.248;2024-01-15T05:02:08;100279.72;;;0.33;100.00
78892;BME280;68368;51.728;5.248;2024-01-15T05:04:12;100279.48;;;0.30;100.00
78892;BME280;68368;51.728;5.248;2024-01-15T05:06:15;100280.45;;;0.27;100.00
78892;BME280;68368;51.728;5.248;2024-01-15T05:08:18;100283.71;;;0.25;100.00
78892;BME280;68368;51.728;5.248;2024-01-15T05:10:21;100275.68;;;0.24;100.00
78892;BME280;68368;51.728;5.248;2024-01-15T05:12:26;100273.80;;;0.26;100.00
78892;BME280;68368;51.728;5.248;2024-01-15T05:14:32;100268.48;;;0.31;100.00
78892;BME280;68368;51.728;5.248;2024-01-15T05:16:35;100267.88;;;0.35;100.00
78892;BME280;68368;51.728;5.248;2024-01-15T05:18:38;100262.52;;;0.37;100.00
78892;BME280;68368;51.728;5.248;2024-01-15T05:20:41;100259.06;;;0.38;100.00
78892;BME280;68368;51.728;5.248;2024-01-15T05:22:46;100256.45;;;0.39;100.00
78892;BME280;68368;51.728;5.248;2024-01-15T05:24:49;100253.31;;;0.38;100.00
78892;BME280;68368;51.728;5.248;2024-01-15T05:26:54;100256.11;;;0.39;100.00
78892;BME280;68368;51.728;5.248;2024-01-15T05:28:57;100255.06;;;0.39;100.00
78892;BME280;68368;51.728;5.248;2024-01-15T05:31:01;100262.05;;;0.40;100.00
78892;BME280;68368;51.728;5.248;2024-01-15T05:33:06;100259.31;;;0.41;100.00
78892;BME280;68368;51.728;5.248;2024-01-15T05:35:12;100260.89;;;0.42;100.00
78892;BME280;68368;51.728;5.248;2024-01-15T05:37:16;100263.52;;;0.42;100.00
78892;BME280;68368;51.728;5.248;2024-01-15T05:39:19;100263.69;;;0.42;100.00
78892;BME280;68368;51.728;5.248;2024-01-15T05:41:23;100264.20;;;0.42;100.00
78892;BME280;68368;51.728;5.248;2024-01-15T05:43:27;100254.89;;;0.39;100.00
78892;BME280;68368;51.728;5.248;2024-01-15T05:45:31;100253.60;;;0.36;100.00
78892;BME280;68368;51.728;5.248;2024-01-15T05:47:35;100258.05;;;0.32;100.00
78892;BME280;68368;51.728;5.248;2024-01-15T05:49:41;100257.95;;;0.28;100.00
78892;BME280;68368;51.728;5.248;2024-01-15T05:51:49;100256.13;;;0.24;100.00
78892;BME280;68368;51.728;5.248;2024-01-15T05:54:33;100258.70;;;0.22;100.00
78892;BME280;68368;51.728;5.248;2024-01-15T06:01:58;100251.63;;;0.18;100.00
78892;BME280;68368;51.728;5.248;2024-01-15T06:04:12;100252.64;;;0.16;100.00
78892;BME280;68368;51.728;5.248;2024-01-15T06:08:33;100247.39;;;0.16;100.00
78892;BME280;68368;51.728;5.248;2024-01-15T06:10:37;100243.33;;;0.14;100.00
78892;BME280;68368;51.728;5.248;2024-01-15T06:12:40;100236.68;;;0.13;100.00
78892;BME280;68368;51.728;5.248;2024-01-15T06:14:43;100232.27;;;0.11;100.00
78892;BME280;68368;51.728;5.248;2024-01-15T06:16:47;100232.03;;;0.08;100.00
78892;BME280;68368;51.728;5.248;2024-01-15T06:18:50;100238.06;;;0.05;100.00
78892;BME280;68368;51.728;5.248;2024-01-15T06:20:55;100238.93;;;0.04;100.00
78892;BME280;68368;51.728;5.248;2024-01-15T06:23:01;100233.17;;;0.04;100.00
78892;BME280;68368;51.728;5.248;2024-01-15T06:25:09;100236.51;;;0.05;100.00
78892;BME280;68368;51.728;5.248;2024-01-15T06:27:14;100238.77;;;0.05;100.00
78892;BME280;68368;51.728;5.248;2024-01-15T06:29:20;100239.49;;;0.06;100.00
78892;BME280;68368;51.728;5.248;2024-01-15T06:31:28;100240.75;;;0.08;100.00
78892;BME280;68368;51.728;5.248;2024-01-15T06:33:35;100241.84;;;0.10;100.00
78892;BME280;68368;51.728;5.248;2024-01-15T06:35:38;100244.33;;;0.11;100.00
78892;BME280;68368;51.728;5.248;2024-01-15T06:37:47;100238.27;;;0.13;100.00
78892;BME280;68368;51.728;5.248;2024-01-15T06:39:50;100244.77;;;0.16;100.00
78892;BME280;68368;51.728;5.248;2024-01-15T06:42:05;100248.13;;;0.17;100.00
78892;BME280;68368;51.728;5.248;2024-01-15T06:44:19;100244.16;;;0.19;100.00
78892;BME280;68368;51.728;5.248;2024-01-15T06:46:25;100245.59;;;0.21;100.00
78892;BME280;68368;51.728;5.248;2024-01-15T06:48:35;100240.20;;;0.22;100.00
78892;BME280;68368;51.728;5.248;2024-01-15T06:50:54;100242.30;;;0.22;100.00
78892;BME280;68368;51.728;5.248;2024-01-15T06:53:01;100239.34;;;0.22;100.00
78892;BME280;68368;51.728;5.248;2024-01-15T06:55:05;100238.10;;;0.21;100.00
78892;BME280;68368;51.728;5.248;2024-01-15T06:57:08;100233.90;;;0.21;100.00
78892;BME280;68368;51.728;5.248;2024-01-15T06:59:12;100236.17;;;0.20;100.00
78892;BME280;68368;51.728;5.248;2024-01-15T07:01:16;100236.69;;;0.20;100.00
78892;BME280;68368;51.728;5.248;2024-01-15T07:03:19;100237.55;;;0.20;100.00
78892;BME280;68368;51.728;5.248;2024-01-15T07:05:29;100239.94;;;0.18;100.00
78892;BME280;68368;51.728;5.248;2024-01-15T07:07:33;100234.84;;;0.16;100.00
78892;BME280;68368;51.728;5.248;2024-01-15T07:09:36;100237.41;;;0.14;100.00
78892;BME280;68368;51.728;5.248;2024-01-15T07:11:45;100246.09;;;0.12;100.00
78892;BME280;68368;51.728;5.248;2024-01-15T07:13:55;100246.55;;;0.10;100.00
78892;BME280;68368;51.728;5.248;2024-01-15T07:16:10;100251.21;;;0.08;100.00
78892;BME280;68368;51.728;5.248;2024-01-15T07:18:13;100256.96;;;0.06;100.00
78892;BME280;68368;51.728;5.248;2024-01-15T07:20:17;100258.02;;;0.07;100.00
78892;BME280;68368;51.728;5.248;2024-01-15T07:22:20;100255.48;;;0.11;100.00
78892;BME280;68368;51.728;5.248;2024-01-15T07:24:27;100257.85;;;0.15;100.00
78892;BME280;68368;51.728;5.248;2024-01-15T07:26:32;100252.25;;;0.15;100.00
78892;BME280;68368;51.728;5.248;2024-01-15T07:28:37;100248.92;;;0.14;100.00
78892;BME280;68368;51.728;5.248;2024-01-15T07:30:42;100249.61;;;0.13;100.00
78892;BME280;68368;51.728;5.248;2024-01-15T07:32:46;100237.39;;;0.14;100.00
78892;BME280;68368;51.728;5.248;2024-01-15T07:34:50;100231.66;;;0.15;100.00
78892;BME280;68368;51.728;5.248;2024-01-15T07:36:54;100230.79;;;0.15;100.00
78892;BME280;68368;51.728;5.248;2024-01-15T07:38:58;100231.69;;;0.15;100.00
78892;BME280;68368;51.728;5.248;2024-01-15T07:41:04;100234.80;;;0.15;100.00
78892;BME280;68368;51.728;5.248;2024-01-15T07:43:07;100250.31;;;0.14;100.00
78892;BME280;68368;51.728;5.248;2024-01-15T07:45:15;100256.58;;;0.12;100.00
78892;BME280;68368;51.728;5.248;2024-01-15T07:47:18;100265.13;;;0.12;100.00
78892;BME280;68368;51.728;5.248;2024-01-15T07:49:22;100268.94;;;0.12;100.00
78892;BME280;68368;51.728;5.248;2024-01-15T07:51:27;100276.13;;;0.13;100.00
78892;BME280;68368;51.728;5.248;2024-01-15T07:53:30;100281.38;;;0.14;100.00
78892;BME280;68368;51.728;5.248;2024-01-15T07:55:34;100284.19;;;0.14;100.00
78892;BME280;68368;51.728;5.248;2024-01-15T07:57:38;100288.37;;;0.14;100.00
78892;BME280;68368;51.728;5.248;2024-01-15T07:59:42;100288.35;;;0.14;100.00
78892;BME280;68368;51.728;5.248;2024-01-15T08:01:49;100292.16;;;0.12;100.00
78892;BME280;68368;51.728;5.248;2024-01-15T08:03:55;100291.77;;;0.10;100.00
78892;BME280;68368;51.728;5.248;2024-01-15T08:06:07;100293.08;;;0.06;100.00
78892;BME280;68368;51.728;5.248;2024-01-15T08:08:11;100288.98;;;0.03;100.00
78892;BME280;68368;51.728;5.248;2024-01-15T08:10:15;100285.59;;;0.00;100.00
78892;BME280;68368;51.728;5.248;2024-01-15T08:12:18;100280.67;;;-0.01;100.00
78892;BME280;68368;51.728;5.248;2024-01-15T08:14:25;100278.55;;;-0.03;100.00
78892;BME280;68368;51.728;5.248;2024-01-15T08:16:28;100280.09;;;-0.04;100.00
78892;BME280;68368;51.728;5.248;2024-01-15T08:18:38;100284.48;;;-0.03;100.00
78892;BME280;68368;51.728;5.248;2024-01-15T08:20:44;100285.61;;;0.01;100.00
78892;BME280;68368;51.728;5.248;2024-01-15T08:22:48;100283.27;;;0.05;100.00
78892;BME280;68368;51.728;5.248;2024-01-15T08:24:51;100282.81;;;0.08;100.00
78892;BME280;68368;51.728;5.248;2024-01-15T08:26:57;100282.42;;;0.14;100.00
78892;BME280;68368;51.728;5.248;2024-01-15T08:29:10;100272.23;;;0.19;100.00
78892;BME280;68368;51.728;5.248;2024-01-15T08:31:20;100271.71;;;0.27;100.00
78892;BME280;68368;51.728;5.248;2024-01-15T08:33:24;100277.91;;;0.31;100.00
78892;BME280;68368;51.728;5.248;2024-01-15T08:35:28;100279.88;;;0.32;100.00
78892;BME280;68368;51.728;5.248;2024-01-15T08:37:36;100281.30;;;0.34;100.00
78892;BME280;68368;51.728;5.248;2024-01-15T08:39:41;100281.72;;;0.37;100.00
78892;BME280;68368;51.728;5.248;2024-01-15T08:42:05;100274.23;;;0.37;100.00
78892;BME280;68368;51.728;5.248;2024-01-15T08:44:10;100280.16;;;0.37;100.00
78892;BME280;68368;51.728;5.248;2024-01-15T08:46:13;100285.02;;;0.37;100.00
78892;BME280;68368;51.728;5.248;2024-01-15T08:48:17;100286.60;;;0.36;100.00
78892;BME280;68368;51.728;5.248;2024-01-15T08:50:26;100281.55;;;0.37;100.00
78892;BME280;68368;51.728;5.248;2024-01-15T08:52:30;100280.72;;;0.39;100.00
78892;BME280;68368;51.728;5.248;2024-01-15T08:54:44;100268.90;;;0.41;100.00
78892;BME280;68368;51.728;5.248;2024-01-15T08:57:08;100272.16;;;0.46;100.00
78892;BME280;68368;51.728;5.248;2024-01-15T08:59:24;100279.04;;;0.50;100.00
78892;BME280;68368;51.728;5.248;2024-01-15T09:01:28;100274.05;;;0.54;100.00
78892;BME280;68368;51.728;5.248;2024-01-15T09:03:38;100272.95;;;0.59;100.00
78892;BME280;68368;51.728;5.248;2024-01-15T09:05:41;100266.27;;;0.65;100.00
78892;BME280;68368;51.728;5.248;2024-01-15T09:07:46;100267.60;;;0.71;100.00
78892;BME280;68368;51.728;5.248;2024-01-15T09:09:55;100268.95;;;0.77;100.00
78892;BME280;68368;51.728;5.248;2024-01-15T09:11:58;100268.48;;;0.80;100.00
78892;BME280;68368;51.728;5.248;2024-01-15T09:14:04;100272.39;;;0.83;100.00
78892;BME280;68368;51.728;5.248;2024-01-15T09:16:13;100271.25;;;0.87;100.00
78892;BME280;68368;51.728;5.248;2024-01-15T09:18:25;100266.27;;;0.93;100.00
78892;BME280;68368;51.728;5.248;2024-01-15T09:20:29;100264.56;;;0.94;100.00
78892;BME280;68368;51.728;5.248;2024-01-15T09:22:33;100266.64;;;0.94;100.00
78892;BME280;68368;51.728;5.248;2024-01-15T09:26:55;100275.13;;;0.98;100.00
78892;BME280;68368;51.728;5.248;2024-01-15T09:28:59;100267.31;;;1.10;100.00
78892;BME280;68368;51.728;5.248;2024-01-15T09:31:04;100270.50;;;1.30;100.00
78892;BME280;68368;51.728;5.248;2024-01-15T09:33:08;100271.74;;;1.62;100.00
78892;BME280;68368;51.728;5.248;2024-01-15T09:35:22;100271.23;;;1.84;100.00
78892;BME280;68368;51.728;5.248;2024-01-15T09:37:38;100268.77;;;1.94;100.00
78892;BME280;68368;51.728;5.248;2024-01-15T09:39:54;100271.61;;;1.97;100.00
78892;BME280;68368;51.728;5.248;2024-01-15T09:41:59;100272.00;;;1.99;100.00
78892;BME280;68368;51.728;5.248;2024-01-15T09:44:07;100267.67;;;2.03;100.00
78892;BME280;68368;51.728;5.248;2024-01-15T09:46:14;100274.40;;;2.08;100.00
78892;BME280;68368;51.728;5.248;2024-01-15T09:48:19;100271.95;;;2.19;100.00
78892;BME280;68368;51.728;5.248;2024-01-15T09:50:29;100273.84;;;2.28;99.95
78892;BME280;68368;51.728;5.248;2024-01-15T09:52:36;100275.34;;;2.35;99.89
78892;BME280;68368;51.728;5.248;2024-01-15T09:54:39;100281.48;;;2.49;99.13
78892;BME280;68368;51.728;5.248;2024-01-15T09:56:47;100285.96;;;2.58;98.17
78892;BME280;68368;51.728;5.248;2024-01-15T09:58:53;100288.46;;;2.60;97.53
78892;BME280;68368;51.728;5.248;2024-01-15T10:00:58;100296.10;;;2.55;97.00
78892;BME280;68368;51.728;5.248;2024-01-15T10:03:06;100305.05;;;2.55;96.59
78892;BME280;68368;51.728;5.248;2024-01-15T10:05:10;100307.55;;;2.59;96.12
78892;BME280;68368;51.728;5.248;2024-01-15T10:07:18;100306.98;;;2.44;94.86
78892;BME280;68368;51.728;5.248;2024-01-15T10:09:27;100319.27;;;2.22;95.71
78892;BME280;68368;51.728;5.248;2024-01-15T10:11:30;100321.20;;;2.00;96.57
78892;BME280;68368;51.728;5.248;2024-01-15T10:13:34;100316.48;;;1.80;96.89
78892;BME280;68368;51.728;5.248;2024-01-15T10:15:39;100307.77;;;1.62;98.07
78892;BME280;68368;51.728;5.248;2024-01-15T10:17:44;100311.27;;;1.42;98.88
78892;BME280;68368;51.728;5.248;2024-01-15T10:19:48;100306.58;;;1.25;99.64
78892;BME280;68368;51.728;5.248;2024-01-15T10:21:54;100299.75;;;1.14;100.00
78892;BME280;68368;51.728;5.248;2024-01-15T10:23:57;100300.48;;;1.08;100.00
78892;BME280;68368;51.728;5.248;2024-01-15T10:26:03;100301.86;;;1.06;100.00
78892;BME280;68368;51.728;5.248;2024-01-15T10:28:07;100295.45;;;1.08;100.00
78892;BME280;68368;51.728;5.248;2024-01-15T10:30:14;100289.50;;;1.09;100.00
78892;BME280;68368;51.728;5.248;2024-01-15T10:32:18;100286.56;;;1.11;100.00
78892;BME280;68368;51.728;5.248;2024-01-15T10:34:21;100277.77;;;1.17;100.00
78892;BME280;68368;51.728;5.248;2024-01-15T10:36:27;100272.69;;;1.26;100.00
78892;BME280;68368;51.728;5.248;2024-01-15T10:38:30;100275.27;;;1.43;100.00
78892;BME280;68368;51.728;5.248;2024-01-15T10:40:36;100280.29;;;1.61;100.00
78892;BME280;68368;51.728;5.248;2024-01-15T10:42:40;100286.51;;;1.77;100.00
78892;BME280;68368;51.728;5.248;2024-01-15T10:44:43;100292.39;;;1.94;100.00
78892;BME280;68368;51.728;5.248;2024-01-15T10:46:49;100297.55;;;2.10;100.00
78892;BME280;68368;51.728;5.248;2024-01-15T10:48:53;100303.85;;;2.34;100.00
78892;BME280;68368;51.728;5.248;2024-01-15T10:50:58;100304.54;;;2.58;100.00
78892;BME280;68368;51.728;5.248;2024-01-15T10:53:01;100299.52;;;2.75;99.91
78892;BME280;68368;51.728;5.248;2024-01-15T10:55:09;100291.31;;;2.90;99.35
78892;BME280;68368;51.728;5.248;2024-01-15T10:57:15;100290.92;;;3.03;98.84
78892;BME280;68368;51.728;5.248;2024-01-15T10:59:21;100286.98;;;3.12;98.38
78892;BME280;68368;51.728;5.248;2024-01-15T11:01:27;100283.77;;;3.21;97.96
78892;BME280;68368;51.728;5.248;2024-01-15T11:03:31;100279.08;;;3.26;97.41
78892;BME280;68368;51.728;5.248;2024-01-15T11:05:37;100282.73;;;3.25;97.22
78892;BME280;68368;51.728;5.248;2024-01-15T11:07:41;100282.53;;;3.20;96.62
78892;BME280;68368;51.728;5.248;2024-01-15T11:09:46;100280.66;;;3.10;96.39
78892;BME280;68368;51.728;5.248;2024-01-15T11:11:52;100281.24;;;3.00;96.54
78892;BME280;68368;51.728;5.248;2024-01-15T11:13:59;100288.83;;;2.89;96.80
78892;BME280;68368;51.728;5.248;2024-01-15T11:16:04;100282.02;;;2.78;96.83
78892;BME280;68368;51.728;5.248;2024-01-15T11:18:09;100286.79;;;2.66;96.62
78892;BME280;68368;51.728;5.248;2024-01-15T11:20:12;100286.73;;;2.61;96.48
78892;BME280;68368;51.728;5.248;2024-01-15T11:22:56;100288.02;;;2.66;96.65
78892;BME280;68368;51.728;5.248;2024-01-15T11:25:02;100289.23;;;2.78;96.58
78892;BME280;68368;51.728;5.248;2024-01-15T11:27:08;100290.76;;;2.89;96.09
78892;BME280;68368;51.728;5.248;2024-01-15T11:29:30;100292.56;;;2.93;95.61